sensor_id;sensor_type;location;lat;lon;timestamp;noise_LAeq;noise_LA_min;noise_LA_max;noise_LA01;noise_LA95
45246;Laerm;31529;51.158;7.354;2023-06-19T00:00:10;37.70;27.21;40.33;;
45246;Laerm;31529;51.158;7.354;2023-06-19T00:00:46;37.60;31.98;40.63;;
45246;Laerm;31529;51.158;7.354;2023-06-19T00:01:18;38.93;33.74;42.19;;
45246;Laerm;31529;51.158;7.354;2023-06-19T00:01:49;39.69;34.61;42.83;;
45246;Laerm;31529;51.158;7.354;2023-06-19T00:02:20;41.00;36.24;46.37;;
45246;Laerm;31529;51.158;7.354;2023-06-19T00:02:51;39.24;33.23;42.95;;
45246;Laerm;31529;51.158;7.354;2023-06-19T00:03:22;37.86;28.97;43.39;;
45246;Laerm;31529;51.158;7.354;2023-06-19T00:03:53;37.91;31.98;45.47;;
45246;Laerm;31529;51.158;7.354;2023-06-19T00:04:24;37.37;30.22;41.28;;
45246;Laerm;31529;51.158;7.354;2023-06-19T00:04:57;39.32;32.65;48.96;;
45246;Laerm;31529;51.158;7.354;2023-06-19T00:05:28;36.98;30.22;40.92;;
45246;Laerm;31529;51.158;7.354;2023-06-19T00:05:59;54.88;35.34;69.77;;
45246;Laerm;31529;51.158;7.354;2023-06-19T00:06:30;53.50;38.00;68.33;;
45246;Laerm;31529;51.158;7.354;2023-06-19T00:07:03;38.23;33.74;41.01;;
45246;Laerm;31529;51.158;7.354;2023-06-19T00:07:36;38.85;34.99;45.31;;
45246;Laerm;31529;51.158;7.354;2023-06-19T00:08:07;40.32;35.96;43.59;;
45246;Laerm;31529;51.158;7.354;2023-06-19T00:08:38;40.09;36.50;49.14;;
45246;Laerm;31529;51.158;7.354;2023-06-19T00:09:12;40.20;35.66;43.01;;
45246;Laerm;31529;51.158;7.354;2023-06-19T00:09:44;39.54;35.66;42.52;;
45246;Laerm;31529;51.158;7.354;2023-06-19T00:10:15;39.91;37.21;43.01;;
45246;Laerm;31529;51.158;7.354;2023-06-19T00:10:47;39.39;35.96;43.34;;
45246;Laerm;31529;51.158;7.354;2023-06-19T00:11:19;40.25;35.66;46.58;;
45246;Laerm;31529;51.158;7.354;2023-06-19T00:11:50;40.59;35.34;44.37;;
45246;Laerm;31529;51.158;7.354;2023-06-19T00:12:21;39.56;34.20;43.39;;
45246;Laerm;31529;51.158;7.354;2023-06-19T00:12:52;40.18;34.61;43.12;;
45246;Laerm;31529;51.158;7.354;2023-06-19T00:13:23;41.66;35.34;45.50;;
45246;Laerm;31529;51.158;7.354;2023-06-19T00:13:55;37.53;30.22;41.68;;
45246;Laerm;31529;51.158;7.354;2023-06-19T00:14:26;37.47;30.22;40.83;;
45246;Laerm;31529;51.158;7.354;2023-06-19T00:14:57;36.88;28.97;40.43;;
45246;Laerm;31529;51.158;7.354;2023-06-19T00:15:28;36.97;26.86;40.22;;
45246;Laerm;31529;51.158;7.354;2023-06-19T00:16:00;36.77;28.97;40.63;;
45246;Laerm;31529;51.158;7.354;2023-06-19T00:16:31;36.49;27.21;40.33;;
45246;Laerm;31529;51.158;7.354;2023-06-19T00:17:03;35.88;24.20;39.64;;
45246;Laerm;31529;51.158;7.354;2023-06-19T00:17:34;36.63;28.97;40.53;;
45246;Laerm;31529;51.158;7.354;2023-06-19T00:18:08;37.25;27.21;41.28;;
45246;Laerm;31529;51.158;7.354;2023-06-19T00:18:39;41.88;33.74;50.31;;
45246;Laerm;31529;51.158;7.354;2023-06-19T00:19:12;38.73;30.84;41.19;;
45246;Laerm;31529;51.158;7.354;2023-06-19T00:19:44;37.32;27.21;40.63;;
45246;Laerm;31529;51.158;7.354;2023-06-19T00:20:15;37.19;27.21;40.84;;
45246;Laerm;31529;51.158;7.354;2023-06-19T00:20:46;38.26;30.22;41.91;;
45246;Laerm;31529;51.158;7.354;2023-06-19T00:21:17;38.66;29.87;41.68;;
45246;Laerm;31529;51.158;7.354;2023-06-19T00:21:49;38.02;31.19;40.92;;
45246;Laerm;31529;51.158;7.354;2023-06-19T00:22:20;37.24;26.86;41.28;;
45246;Laerm;31529;51.158;7.354;2023-06-19T00:22:52;37.47;24.20;41.01;;
45246;Laerm;31529;51.158;7.354;2023-06-19T00:23:23;37.71;31.98;41.36;;
45246;Laerm;31529;51.158;7.354;2023-06-19T00:23:54;36.91;27.21;40.11;;
45246;Laerm;31529;51.158;7.354;2023-06-19T00:24:26;37.34;31.19;40.33;;
45246;Laerm;31529;51.158;7.354;2023-06-19T00:24:57;38.18;31.98;41.44;;
45246;Laerm;31529;51.158;7.354;2023-06-19T00:25:28;38.12;30.22;41.19;;
45246;Laerm;31529;51.158;7.354;2023-06-19T00:25:59;37.93;31.19;40.83;;
45246;Laerm;31529;51.158;7.354;2023-06-19T00:26:31;38.73;31.19;41.52;;
45246;Laerm;31529;51.158;7.354;2023-06-19T00:27:03;38.11;30.22;40.83;;
45246;Laerm;31529;51.158;7.354;2023-06-19T00:27:34;38.29;31.19;40.63;;
45246;Laerm;31529;51.158;7.354;2023-06-19T00:28:05;38.20;31.19;41.01;;
45246;Laerm;31529;51.158;7.354;2023-06-19T00:28:43;38.37;28.97;42.39;;
45246;Laerm;31529;51.158;7.354;2023-06-19T00:29:16;38.76;31.98;41.36;;
45246;Laerm;31529;51.158;7.354;2023-06-19T00:29:47;39.01;31.98;41.91;;
45246;Laerm;31529;51.158;7.354;2023-06-19T00:30:18;38.59;33.23;41.44;;
45246;Laerm;31529;51.158;7.354;2023-06-19T00:30:49;38.29;31.98;40.83;;
45246;Laerm;31529;51.158;7.354;2023-06-19T00:31:20;37.85;27.21;41.83;;
45246;Laerm;31529;51.158;7.354;2023-06-19T00:31:51;38.39;31.19;41.10;;
45246;Laerm;31529;51.158;7.354;2023-06-19T00:32:22;39.41;33.74;43.01;;
45246;Laerm;31529;51.158;7.354;2023-06-19T00:32:53;39.43;35.34;41.91;;
45246;Laerm;31529;51.158;7.354;2023-06-19T00:33:24;39.09;32.65;41.60;;
45246;Laerm;31529;51.158;7.354;2023-06-19T00:33:55;38.88;32.65;41.44;;
45246;Laerm;31529;51.158;7.354;2023-06-19T00:34:29;38.11;24.20;40.83;;
45246;Laerm;31529;51.158;7.354;2023-06-19T00:35:00;38.36;33.23;41.01;;
45246;Laerm;31529;51.158;7.354;2023-06-19T00:35:31;38.88;32.65;41.44;;
45246;Laerm;31529;51.158;7.354;2023-06-19T00:36:08;39.17;32.65;41.52;;
45246;Laerm;31529;51.158;7.354;2023-06-19T00:36:40;38.71;33.74;41.28;;
45246;Laerm;31529;51.158;7.354;2023-06-19T00:37:11;38.33;31.19;41.01;;
45246;Laerm;31529;51.158;7.354;2023-06-19T00:37:44;38.45;30.22;41.19;;
45246;Laerm;31529;51.158;7.354;2023-06-19T00:38:15;39.19;31.98;44.65;;
45246;Laerm;31529;51.158;7.354;2023-06-19T00:38:47;39.11;34.20;44.20;;
45246;Laerm;31529;51.158;7.354;2023-06-19T00:39:18;39.65;34.20;43.85;;
45246;Laerm;31529;51.158;7.354;2023-06-19T00:39:50;37.87;31.19;41.68;;
45246;Laerm;31529;51.158;7.354;2023-06-19T00:40:29;37.46;31.19;40.43;;
45246;Laerm;31529;51.158;7.354;2023-06-19T00:41:01;37.27;27.21;40.92;;
45246;Laerm;31529;51.158;7.354;2023-06-19T00:41:32;37.81;30.22;41.10;;
45246;Laerm;31529;51.158;7.354;2023-06-19T00:42:03;37.85;27.21;41.41;;
45246;Laerm;31529;51.158;7.354;2023-06-19T00:42:34;38.27;31.63;41.01;;
45246;Laerm;31529;51.158;7.354;2023-06-19T00:43:06;39.09;34.20;42.33;;
45246;Laerm;31529;51.158;7.354;2023-06-19T00:43:39;39.51;34.99;42.46;;
45246;Laerm;31529;51.158;7.354;2023-06-19T00:44:10;39.24;35.66;42.46;;
45246;Laerm;31529;51.158;7.354;2023-06-19T00:44:41;39.49;34.61;42.83;;
45246;Laerm;31529;51.158;7.354;2023-06-19T00:45:12;39.13;34.20;42.19;;
45246;Laerm;31529;51.158;7.354;2023-06-19T00:45:43;39.02;34.20;41.52;;
45246;Laerm;31529;51.158;7.354;2023-06-19T00:46:14;39.02;33.23;42.71;;
45246;Laerm;31529;51.158;7.354;2023-06-19T00:46:46;38.43;33.74;41.01;;
45246;Laerm;31529;51.158;7.354;2023-06-19T00:47:17;39.13;31.98;41.52;;
45246;Laerm;31529;51.158;7.354;2023-06-19T00:47:48;38.69;34.20;42.33;;
45246;Laerm;31529;51.158;7.354;2023-06-19T00:48:19;38.79;33.74;42.89;;
45246;Laerm;31529;51.158;7.354;2023-06-19T00:48:50;39.22;34.20;42.19;;
45246;Laerm;31529;51.158;7.354;2023-06-19T00:49:21;38.63;32.65;42.95;;
45246;Laerm;31529;51.158;7.354;2023-06-19T00:49:52;38.15;32.65;41.10;;
45246;Laerm;31529;51.158;7.354;2023-06-19T00:50:24;38.35;31.19;41.71;;
45246;Laerm;31529;51.158;7.354;2023-06-19T00:50:56;37.66;27.21;40.92;;
45246;Laerm;31529;51.158;7.354;2023-06-19T00:51:28;37.40;28.97;40.53;;
45246;Laerm;31529;51.158;7.354;2023-06-19T00:51:59;37.19;28.97;40.63;;
45246;Laerm;31529;51.158;7.354;2023-06-19T00:52:30;37.30;30.22;40.73;;
45246;Laerm;31529;51.158;7.354;2023-06-19T00:53:02;39.25;32.65;41.76;;
45246;Laerm;31529;51.158;7.354;2023-06-19T00:53:35;39.67;34.20;41.60;;
45246;Laerm;31529;51.158;7.354;2023-06-19T00:54:06;37.67;28.97;41.19;;
45246;Laerm;31529;51.158;7.354;2023-06-19T00:54:37;39.45;31.19;44.53;;
45246;Laerm;31529;51.158;7.354;2023-06-19T00:55:09;39.78;28.97;43.88;;
45246;Laerm;31529;51.158;7.354;2023-06-19T00:55:40;39.31;33.23;44.11;;
45246;Laerm;31529;51.158;7.354;2023-06-19T00:56:11;39.34;34.20;43.01;;
45246;Laerm;31529;51.158;7.354;2023-06-19T00:56:43;39.24;31.98;42.52;;
45246;Laerm;31529;51.158;7.354;2023-06-19T00:57:14;38.66;31.19;42.26;;
45246;Laerm;31529;51.158;7.354;2023-06-19T00:57:46;37.83;31.19;41.28;;
45246;Laerm;31529;51.158;7.354;2023-06-19T00:58:18;39.01;34.61;41.76;;
45246;Laerm;31529;51.158;7.354;2023-06-19T00:58:51;38.64;32.65;43.12;;
45246;Laerm;31529;51.158;7.354;2023-06-19T00:59:23;39.89;32.65;46.87;;
45246;Laerm;31529;51.158;7.354;2023-06-19T00:59:55;41.40;37.21;44.57;;
45246;Laerm;31529;51.158;7.354;2023-06-19T01:00:26;38.79;30.22;41.60;;
45246;Laerm;31529;51.158;7.354;2023-06-19T01:00:57;37.88;31.98;41.10;;
45246;Laerm;31529;51.158;7.354;2023-06-19T01:01:28;37.25;27.21;40.92;;
45246;Laerm;31529;51.158;7.354;2023-06-19T01:02:00;40.81;34.61;44.57;;
45246;Laerm;31529;51.158;7.354;2023-06-19T01:02:31;41.57;34.99;45.20;;
45246;Laerm;31529;51.158;7.354;2023-06-19T01:03:02;39.88;33.74;43.34;;
45246;Laerm;31529;51.158;7.354;2023-06-19T01:03:33;38.25;30.22;41.83;;
45246;Laerm;31529;51.158;7.354;2023-06-19T01:04:04;38.06;31.19;41.83;;
45246;Laerm;31529;51.158;7.354;2023-06-19T01:04:35;38.75;32.65;43.34;;
45246;Laerm;31529;51.158;7.354;2023-06-19T01:05:07;41.24;34.61;46.45;;
45246;Laerm;31529;51.158;7.354;2023-06-19T01:05:38;36.86;28.97;40.00;;
45246;Laerm;31529;51.158;7.354;2023-06-19T01:06:13;36.57;27.21;40.22;;
45246;Laerm;31529;51.158;7.354;2023-06-19T01:06:56;37.23;24.20;41.52;;
45246;Laerm;31529;51.158;7.354;2023-06-19T01:07:43;37.59;27.21;41.36;;
45246;Laerm;31529;51.158;7.354;2023-06-19T01:09:13;37.75;30.22;41.28;;
45246;Laerm;31529;51.158;7.354;2023-06-19T01:10:00;37.47;27.21;41.83;;
45246;Laerm;31529;51.158;7.354;2023-06-19T01:10:46;40.05;30.22;43.69;;
45246;Laerm;31529;51.158;7.354;2023-06-19T01:11:21;40.54;33.74;44.37;;
45246;Laerm;31529;51.158;7.354;2023-06-19T01:11:58;38.53;24.20;43.28;;
45246;Laerm;31529;51.158;7.354;2023-06-19T01:12:36;37.32;27.21;40.73;;
45246;Laerm;31529;51.158;7.354;2023-06-19T01:13:13;59.80;30.22;73.89;;
45246;Laerm;31529;51.158;7.354;2023-06-19T01:13:58;50.89;31.98;65.60;;
45246;Laerm;31529;51.158;7.354;2023-06-19T01:14:36;38.70;30.22;43.44;;
45246;Laerm;31529;51.158;7.354;2023-06-19T01:15:09;40.90;35.34;44.92;;
45246;Laerm;31529;51.158;7.354;2023-06-19T01:15:41;40.52;34.99;44.77;;
45246;Laerm;31529;51.158;7.354;2023-06-19T01:16:13;39.08;31.19;42.71;;
45246;Laerm;31529;51.158;7.354;2023-06-19T01:16:45;37.74;28.97;41.36;;
45246;Laerm;31529;51.158;7.354;2023-06-19T01:17:16;38.41;27.21;49.60;;
45246;Laerm;31529;51.158;7.354;2023-06-19T01:17:47;37.17;27.21;41.01;;
45246;Laerm;31529;51.158;7.354;2023-06-19T01:18:20;36.98;28.97;40.43;;
45246;Laerm;31529;51.158;7.354;2023-06-19T01:18:52;39.02;32.65;45.81;;
45246;Laerm;31529;51.158;7.354;2023-06-19T01:19:23;37.65;30.22;41.28;;
45246;Laerm;31529;51.158;7.354;2023-06-19T01:19:57;38.02;31.19;41.28;;
45246;Laerm;31529;51.158;7.354;2023-06-19T01:20:29;39.16;33.74;43.79;;
45246;Laerm;31529;51.158;7.354;2023-06-19T01:21:16;38.37;30.22;42.83;;
45246;Laerm;31529;51.158;7.354;2023-06-19T01:21:48;37.63;28.97;40.73;;
45246;Laerm;31529;51.158;7.354;2023-06-19T01:22:32;38.72;31.98;43.44;;
45246;Laerm;31529;51.158;7.354;2023-06-19T01:23:08;37.89;31.19;41.44;;
45246;Laerm;31529;51.158;7.354;2023-06-19T01:23:39;37.46;24.20;40.92;;
45246;Laerm;31529;51.158;7.354;2023-06-19T01:24:11;38.13;32.65;41.28;;
45246;Laerm;31529;51.158;7.354;2023-06-19T01:24:42;37.92;28.97;41.10;;
45246;Laerm;31529;51.158;7.354;2023-06-19T01:25:13;37.83;30.22;40.83;;
45246;Laerm;31529;51.158;7.354;2023-06-19T01:25:44;37.49;28.97;41.36;;
45246;Laerm;31529;51.158;7.354;2023-06-19T01:26:16;37.81;30.22;40.83;;
45246;Laerm;31529;51.158;7.354;2023-06-19T01:26:49;38.11;31.98;41.01;;
45246;Laerm;31529;51.158;7.354;2023-06-19T01:27:21;38.71;31.98;41.44;;
45246;Laerm;31529;51.158;7.354;2023-06-19T01:27:52;39.24;32.65;41.76;;
45246;Laerm;31529;51.158;7.354;2023-06-19T01:28:23;38.96;31.19;41.60;;
45246;Laerm;31529;51.158;7.354;2023-06-19T01:28:57;37.88;28.97;41.28;;
45246;Laerm;31529;51.158;7.354;2023-06-19T01:29:28;37.95;28.97;41.28;;
45246;Laerm;31529;51.158;7.354;2023-06-19T01:30:01;37.54;27.21;40.73;;
45246;Laerm;31529;51.158;7.354;2023-06-19T01:30:33;37.37;28.97;40.53;;
45246;Laerm;31529;51.158;7.354;2023-06-19T01:31:12;37.22;30.22;40.63;;
45246;Laerm;31529;51.158;7.354;2023-06-19T01:32:27;37.91;28.97;41.28;;
45246;Laerm;31529;51.158;7.354;2023-06-19T01:33:09;37.88;24.20;41.10;;
45246;Laerm;31529;51.158;7.354;2023-06-19T01:33:42;37.81;30.22;41.28;;
45246;Laerm;31529;51.158;7.354;2023-06-19T01:34:17;38.14;31.98;41.01;;
45246;Laerm;31529;51.158;7.354;2023-06-19T01:34:52;39.04;33.74;42.77;;
45246;Laerm;31529;51.158;7.354;2023-06-19T01:35:31;40.13;35.89;43.34;;
45246;Laerm;31529;51.158;7.354;2023-06-19T01:36:04;39.10;34.20;43.44;;
45246;Laerm;31529;51.158;7.354;2023-06-19T01:36:35;38.03;32.65;40.92;;
45246;Laerm;31529;51.158;7.354;2023-06-19T01:37:09;37.74;31.19;43.39;;
45246;Laerm;31529;51.158;7.354;2023-06-19T01:37:41;37.72;28.97;41.63;;
45246;Laerm;31529;51.158;7.354;2023-06-19T01:38:14;37.16;28.97;40.33;;
45246;Laerm;31529;51.158;7.354;2023-06-19T01:38:47;36.83;24.20;40.73;;
45246;Laerm;31529;51.158;7.354;2023-06-19T01:39:20;36.37;24.20;40.11;;
45246;Laerm;31529;51.158;7.354;2023-06-19T01:39:51;37.27;28.97;40.92;;
45246;Laerm;31529;51.158;7.354;2023-06-19T01:40:24;36.81;28.97;40.92;;
45246;Laerm;31529;51.158;7.354;2023-06-19T01:40:59;38.67;28.97;55.64;;
45246;Laerm;31529;51.158;7.354;2023-06-19T01:41:32;38.82;31.19;41.68;;
45246;Laerm;31529;51.158;7.354;2023-06-19T01:42:04;38.84;33.23;41.91;;
45246;Laerm;31529;51.158;7.354;2023-06-19T01:42:40;40.84;33.23;45.60;;
45246;Laerm;31529;51.158;7.354;2023-06-19T01:43:11;40.73;33.23;44.49;;
45246;Laerm;31529;51.158;7.354;2023-06-19T01:43:45;39.72;35.34;43.18;;
45246;Laerm;31529;51.158;7.354;2023-06-19T01:44:16;38.76;33.23;42.39;;
45246;Laerm;31529;51.158;7.354;2023-06-19T01:44:47;38.15;31.98;40.92;;
45246;Laerm;31529;51.158;7.354;2023-06-19T01:45:19;38.76;31.19;42.05;;
45246;Laerm;31529;51.158;7.354;2023-06-19T01:45:50;39.29;34.61;43.34;;
45246;Laerm;31529;51.158;7.354;2023-06-19T01:46:22;38.35;33.74;41.36;;
45246;Laerm;31529;51.158;7.354;2023-06-19T01:46:53;38.23;31.98;42.33;;
45246;Laerm;31529;51.158;7.354;2023-06-19T01:47:24;38.37;27.21;41.52;;
45246;Laerm;31529;51.158;7.354;2023-06-19T01:47:55;38.55;34.20;41.76;;
45246;Laerm;31529;51.158;7.354;2023-06-19T01:48:27;39.86;30.22;42.52;;
45246;Laerm;31529;51.158;7.354;2023-06-19T01:48:58;38.94;35.34;41.52;;
45246;Laerm;31529;51.158;7.354;2023-06-19T01:49:30;38.45;33.85;42.33;;
45246;Laerm;31529;51.158;7.354;2023-06-19T01:50:02;39.52;34.61;44.81;;
45246;Laerm;31529;51.158;7.354;2023-06-19T01:50:33;39.58;35.96;44.37;;
45246;Laerm;31529;51.158;7.354;2023-06-19T01:51:04;38.97;33.74;42.19;;
45246;Laerm;31529;51.158;7.354;2023-06-19T01:51:35;38.41;32.30;40.73;;
45246;Laerm;31529;51.158;7.354;2023-06-19T01:52:06;39.24;33.74;41.98;;
45246;Laerm;31529;51.158;7.354;2023-06-19T01:52:38;39.11;33.23;41.76;;
45246;Laerm;31529;51.158;7.354;2023-06-19T01:53:09;39.54;34.61;44.07;;
45246;Laerm;31529;51.158;7.354;2023-06-19T01:53:40;39.05;33.23;41.91;;
45246;Laerm;31529;51.158;7.354;2023-06-19T01:54:12;39.02;34.20;41.76;;
45246;Laerm;31529;51.158;7.354;2023-06-19T01:54:43;38.57;33.74;41.83;;
45246;Laerm;31529;51.158;7.354;2023-06-19T01:55:14;39.91;35.34;42.39;;
45246;Laerm;31529;51.158;7.354;2023-06-19T01:55:45;39.14;32.65;42.12;;
45246;Laerm;31529;51.158;7.354;2023-06-19T01:56:16;38.82;33.23;41.44;;
45246;Laerm;31529;51.158;7.354;2023-06-19T01:56:47;39.25;31.98;41.60;;
45246;Laerm;31529;51.158;7.354;2023-06-19T01:57:19;38.66;34.20;41.36;;
45246;Laerm;31529;51.158;7.354;2023-06-19T01:57:50;40.03;34.99;44.81;;
45246;Laerm;31529;51.158;7.354;2023-06-19T01:58:21;41.34;37.82;44.84;;
45246;Laerm;31529;51.158;7.354;2023-06-19T01:58:52;39.04;34.20;42.33;;
45246;Laerm;31529;51.158;7.354;2023-06-19T01:59:25;39.76;31.19;48.70;;
45246;Laerm;31529;51.158;7.354;2023-06-19T01:59:56;38.93;31.19;42.33;;
45246;Laerm;31529;51.158;7.354;2023-06-19T02:00:27;38.79;28.97;42.65;;
45246;Laerm;31529;51.158;7.354;2023-06-19T02:00:58;38.29;32.65;41.98;;
45246;Laerm;31529;51.158;7.354;2023-06-19T02:01:29;38.37;31.98;41.10;;
45246;Laerm;31529;51.158;7.354;2023-06-19T02:02:00;38.07;32.65;40.92;;
45246;Laerm;31529;51.158;7.354;2023-06-19T02:02:31;38.03;31.98;41.19;;
45246;Laerm;31529;51.158;7.354;2023-06-19T02:03:04;38.43;32.65;41.10;;
45246;Laerm;31529;51.158;7.354;2023-06-19T02:03:35;60.02;37.21;71.98;;
45246;Laerm;31529;51.158;7.354;2023-06-19T02:04:06;43.25;33.74;53.48;;
45246;Laerm;31529;51.158;7.354;2023-06-19T02:04:37;41.45;38.00;45.10;;
45246;Laerm;31529;51.158;7.354;2023-06-19T02:05:08;41.26;37.82;44.61;;
45246;Laerm;31529;51.158;7.354;2023-06-19T02:05:40;41.75;38.18;45.10;;
45246;Laerm;31529;51.158;7.354;2023-06-19T02:06:11;40.11;34.64;44.57;;
45246;Laerm;31529;51.158;7.354;2023-06-19T02:06:42;38.71;33.74;41.52;;
45246;Laerm;31529;51.158;7.354;2023-06-19T02:07:13;39.02;33.39;46.82;;
45246;Laerm;31529;51.158;7.354;2023-06-19T02:07:45;39.43;32.88;42.71;;
45246;Laerm;31529;51.158;7.354;2023-06-19T02:08:16;61.16;39.25;74.84;;
45246;Laerm;31529;51.158;7.354;2023-06-19T02:08:47;41.37;34.61;44.41;;
45246;Laerm;31529;51.158;7.354;2023-06-19T02:09:19;40.86;33.23;50.03;;
45246;Laerm;31529;51.158;7.354;2023-06-19T02:09:50;39.50;32.65;47.25;;
45246;Laerm;31529;51.158;7.354;2023-06-19T02:10:21;39.08;33.23;46.27;;
45246;Laerm;31529;51.158;7.354;2023-06-19T02:10:52;39.16;32.65;53.05;;
45246;Laerm;31529;51.158;7.354;2023-06-19T02:11:23;40.13;31.19;47.54;;
45246;Laerm;31529;51.158;7.354;2023-06-19T02:11:55;41.80;35.66;45.44;;
45246;Laerm;31529;51.158;7.354;2023-06-19T02:12:26;41.02;37.42;45.60;;
45246;Laerm;31529;51.158;7.354;2023-06-19T02:12:57;40.79;34.20;49.13;;
45246;Laerm;31529;51.158;7.354;2023-06-19T02:13:28;42.01;32.65;55.39;;
45246;Laerm;31529;51.158;7.354;2023-06-19T02:13:59;39.87;34.20;52.04;;
45246;Laerm;31529;51.158;7.354;2023-06-19T02:14:30;38.33;32.65;44.92;;
45246;Laerm;31529;51.158;7.354;2023-06-19T02:15:01;39.61;32.65;53.62;;
45246;Laerm;31529;51.158;7.354;2023-06-19T02:15:32;39.66;30.22;44.29;;
45246;Laerm;31529;51.158;7.354;2023-06-19T02:16:04;38.58;32.65;45.41;;
45246;Laerm;31529;51.158;7.354;2023-06-19T02:16:35;38.61;32.65;42.65;;
45246;Laerm;31529;51.158;7.354;2023-06-19T02:17:06;38.76;31.98;44.57;;
45246;Laerm;31529;51.158;7.354;2023-06-19T02:17:37;39.17;31.19;46.80;;
45246;Laerm;31529;51.158;7.354;2023-06-19T02:18:08;40.03;31.19;48.53;;
45246;Laerm;31529;51.158;7.354;2023-06-19T02:18:39;39.75;35.66;48.23;;
45246;Laerm;31529;51.158;7.354;2023-06-19T02:19:11;38.39;31.19;40.92;;
45246;Laerm;31529;51.158;7.354;2023-06-19T02:19:42;39.62;35.66;42.89;;
45246;Laerm;31529;51.158;7.354;2023-06-19T02:20:13;50.62;37.82;63.71;;
45246;Laerm;31529;51.158;7.354;2023-06-19T02:20:44;61.51;37.82;74.31;;
45246;Laerm;31529;51.158;7.354;2023-06-19T02:21:15;40.21;34.61;48.13;;
45246;Laerm;31529;51.158;7.354;2023-06-19T02:21:46;40.61;34.20;52.80;;
45246;Laerm;31529;51.158;7.354;2023-06-19T02:22:18;41.08;35.96;54.63;;
45246;Laerm;31529;51.158;7.354;2023-06-19T02:22:50;42.67;36.50;58.27;;
45246;Laerm;31529;51.158;7.354;2023-06-19T02:23:21;41.39;34.61;57.06;;
45246;Laerm;31529;51.158;7.354;2023-06-19T02:23:53;40.61;36.24;48.55;;
45246;Laerm;31529;51.158;7.354;2023-06-19T02:24:24;40.32;35.34;46.05;;
45246;Laerm;31529;51.158;7.354;2023-06-19T02:24:55;69.16;37.42;84.31;;
45246;Laerm;31529;51.158;7.354;2023-06-19T02:25:26;49.90;37.42;59.54;;
45246;Laerm;31529;51.158;7.354;2023-06-19T02:25:57;39.93;35.66;46.85;;
45246;Laerm;31529;51.158;7.354;2023-06-19T02:26:29;42.21;36.24;52.73;;
45246;Laerm;31529;51.158;7.354;2023-06-19T02:27:00;43.40;37.82;54.73;;
45246;Laerm;31529;51.158;7.354;2023-06-19T02:27:33;40.05;35.34;51.13;;
45246;Laerm;31529;51.158;7.354;2023-06-19T02:28:04;43.00;37.82;53.05;;
45246;Laerm;31529;51.158;7.354;2023-06-19T02:28:35;40.57;36.75;48.56;;
45246;Laerm;31529;51.158;7.354;2023-06-19T02:29:06;42.53;36.50;57.24;;
45246;Laerm;31529;51.158;7.354;2023-06-19T02:29:37;41.55;33.85;54.25;;
45246;Laerm;31529;51.158;7.354;2023-06-19T02:30:08;40.15;34.61;46.03;;
45246;Laerm;31529;51.158;7.354;2023-06-19T02:30:40;41.74;35.66;53.94;;
45246;Laerm;31529;51.158;7.354;2023-06-19T02:31:11;63.42;38.35;77.29;;
45246;Laerm;31529;51.158;7.354;2023-06-19T02:31:42;40.44;35.96;48.42;;
45246;Laerm;31529;51.158;7.354;2023-06-19T02:32:13;40.24;36.50;44.77;;
45246;Laerm;31529;51.158;7.354;2023-06-19T02:32:44;41.96;36.50;50.15;;
45246;Laerm;31529;51.158;7.354;2023-06-19T02:33:15;41.44;36.99;52.41;;
45246;Laerm;31529;51.158;7.354;2023-06-19T02:33:46;42.36;36.64;55.35;;
45246;Laerm;31529;51.158;7.354;2023-06-19T02:34:17;44.15;37.42;53.93;;
45246;Laerm;31529;51.158;7.354;2023-06-19T02:34:49;59.91;39.51;72.33;;
45246;Laerm;31529;51.158;7.354;2023-06-19T02:35:19;43.73;38.51;54.38;;
45246;Laerm;31529;51.158;7.354;2023-06-19T02:35:51;44.22;38.00;53.90;;
45246;Laerm;31529;51.158;7.354;2023-06-19T02:36:22;45.08;38.51;55.27;;
45246;Laerm;31529;51.158;7.354;2023-06-19T02:36:53;44.20;38.17;53.44;;
45246;Laerm;31529;51.158;7.354;2023-06-19T02:37:24;51.79;38.51;65.80;;
45246;Laerm;31529;51.158;7.354;2023-06-19T02:37:56;47.35;38.00;58.76;;
45246;Laerm;31529;51.158;7.354;2023-06-19T02:38:27;46.18;39.11;55.51;;
45246;Laerm;31529;51.158;7.354;2023-06-19T02:39:00;60.70;39.38;73.94;;
45246;Laerm;31529;51.158;7.354;2023-06-19T02:39:32;48.31;40.43;59.48;;
45246;Laerm;31529;51.158;7.354;2023-06-19T02:40:04;45.04;38.35;54.59;;
45246;Laerm;31529;51.158;7.354;2023-06-19T02:40:35;44.75;39.38;54.56;;
45246;Laerm;31529;51.158;7.354;2023-06-19T02:41:07;44.29;39.53;53.22;;
45246;Laerm;31529;51.158;7.354;2023-06-19T02:41:38;44.14;39.51;54.87;;
45246;Laerm;31529;51.158;7.354;2023-06-19T02:42:09;64.88;41.76;81.17;;
45246;Laerm;31529;51.158;7.354;2023-06-19T02:42:40;71.16;41.60;86.71;;
45246;Laerm;31529;51.158;7.354;2023-06-19T02:43:11;45.36;40.00;57.89;;
45246;Laerm;31529;51.158;7.354;2023-06-19T02:43:43;42.86;37.62;50.47;;
45246;Laerm;31529;51.158;7.354;2023-06-19T02:44:14;42.93;37.83;53.44;;
45246;Laerm;31529;51.158;7.354;2023-06-19T02:44:45;50.12;38.18;65.10;;
45246;Laerm;31529;51.158;7.354;2023-06-19T02:45:17;43.05;37.62;52.05;;
45246;Laerm;31529;51.158;7.354;2023-06-19T02:45:48;42.82;38.18;52.47;;
45246;Laerm;31529;51.158;7.354;2023-06-19T02:46:19;42.32;38.00;49.07;;
45246;Laerm;31529;51.158;7.354;2023-06-19T02:46:50;43.60;38.00;52.21;;
45246;Laerm;31529;51.158;7.354;2023-06-19T02:47:21;41.72;37.82;48.96;;
45246;Laerm;31529;51.158;7.354;2023-06-19T02:47:52;45.54;38.82;56.56;;
45246;Laerm;31529;51.158;7.354;2023-06-19T02:48:24;46.23;38.82;58.81;;
45246;Laerm;31529;51.158;7.354;2023-06-19T02:48:55;45.80;40.11;58.30;;
45246;Laerm;31529;51.158;7.354;2023-06-19T02:49:26;46.78;39.38;58.18;;
45246;Laerm;31529;51.158;7.354;2023-06-19T02:50:01;61.71;41.01;75.36;;
45246;Laerm;31529;51.158;7.354;2023-06-19T02:50:33;48.11;38.00;63.87;;
45246;Laerm;31529;51.158;7.354;2023-06-19T02:51:04;57.15;40.92;69.73;;
45246;Laerm;31529;51.158;7.354;2023-06-19T02:51:35;44.75;39.17;55.54;;
45246;Laerm;31529;51.158;7.354;2023-06-19T02:52:06;42.83;38.35;52.27;;
45246;Laerm;31529;51.158;7.354;2023-06-19T02:52:38;44.15;39.11;52.09;;
45246;Laerm;31529;51.158;7.354;2023-06-19T02:53:09;54.22;45.24;64.70;;
45246;Laerm;31529;51.158;7.354;2023-06-19T02:53:40;75.35;46.87;85.26;;
45246;Laerm;31529;51.158;7.354;2023-06-19T02:54:12;46.01;38.51;55.32;;
45246;Laerm;31529;51.158;7.354;2023-06-19T02:54:43;41.36;36.75;47.44;;
45246;Laerm;31529;51.158;7.354;2023-06-19T02:55:14;41.11;38.18;44.07;;
45246;Laerm;31529;51.158;7.354;2023-06-19T02:55:45;41.88;38.35;50.22;;
45246;Laerm;31529;51.158;7.354;2023-06-19T02:56:16;41.94;38.18;49.79;;
45246;Laerm;31529;51.158;7.354;2023-06-19T02:56:48;41.29;38.35;45.50;;
45246;Laerm;31529;51.158;7.354;2023-06-19T02:57:19;43.31;37.47;57.19;;
45246;Laerm;31529;51.158;7.354;2023-06-19T02:57:50;41.28;37.62;45.81;;
45246;Laerm;31529;51.158;7.354;2023-06-19T02:58:21;40.80;36.75;48.09;;
45246;Laerm;31529;51.158;7.354;2023-06-19T02:58:53;41.48;37.62;53.08;;
45246;Laerm;31529;51.158;7.354;2023-06-19T02:59:24;42.11;38.18;51.95;;
45246;Laerm;31529;51.158;7.354;2023-06-19T02:59:55;41.54;37.42;48.07;;
45246;Laerm;31529;51.158;7.354;2023-06-19T03:00:26;42.19;38.18;48.78;;
45246;Laerm;31529;51.158;7.354;2023-06-19T03:01:00;40.66;36.24;44.95;;